sensor_id;sensor_type;location;lat;lon;timestamp;P1;P2;P0
72854;PMS7003;60991;51.278;22.550;2023-02-01T00:00:56;22.75;19.25;13.00
72854;PMS7003;60991;51.278;22.550;2023-02-01T00:02:26;26.67;22.00;15.33
72854;PMS7003;60991;51.278;22.550;2023-02-01T00:03:56;30.67;22.67;15.33
72854;PMS7003;60991;51.278;22.550;2023-02-01T00:05:26;17.00;17.00;13.33
72854;PMS7003;60991;51.278;22.550;2023-02-01T00:06:56;30.50;19.75;14.00
72854;PMS7003;60991;51.278;22.550;2023-02-01T00:08:27;22.50;19.75;14.75
72854;PMS7003;60991;51.278;22.550;2023-02-01T00:09:58;19.00;15.00;11.25
72854;PMS7003;60991;51.278;22.550;2023-02-01T00:11:28;16.33;16.00;11.00
72854;PMS7003;60991;51.278;22.550;2023-02-01T00:12:58;18.00;14.50;12.00
72854;PMS7003;60991;51.278;22.550;2023-02-01T00:14:29;19.00;16.75;11.50
72854;PMS7003;60991;51.278;22.550;2023-02-01T00:16:18;19.25;16.75;12.75
72854;PMS7003;60991;51.278;22.550;2023-02-01T00:17:54;15.25;15.00;12.00
72854;PMS7003;60991;51.278;22.550;2023-02-01T00:19:24;24.00;13.75;10.75
72854;PMS7003;60991;51.278;22.550;2023-02-01T00:20:55;23.33;13.33;10.00
72854;PMS7003;60991;51.278;22.550;2023-02-01T00:22:25;18.67;18.00;12.33
72854;PMS7003;60991;51.278;22.550;2023-02-01T00:23:55;16.00;13.25;10.00
72854;PMS7003;60991;51.278;22.550;2023-02-01T00:25:25;18.00;15.50;12.00
72854;PMS7003;60991;51.278;22.550;2023-02-01T00:26:56;19.67;14.67;11.67
72854;PMS7003;60991;51.278;22.550;2023-02-01T00:28:26;18.33;14.67;10.00
72854;PMS7003;60991;51.278;22.550;2023-02-01T00:29:56;23.33;16.33;13.00
72854;PMS7003;60991;51.278;22.550;2023-02-01T00:31:26;16.67;16.00;11.00
72854;PMS7003;60991;51.278;22.550;2023-02-01T00:32:57;14.25;14.25;11.00
72854;PMS7003;60991;51.278;22.550;2023-02-01T00:34:27;4.00;4.00;1.00
72854;PMS7003;60991;51.278;22.550;2023-02-01T00:36:01;14.75;13.50;10.75
72854;PMS7003;60991;51.278;22.550;2023-02-01T00:37:33;14.00;13.00;9.50
72854;PMS7003;60991;51.278;22.550;2023-02-01T00:39:03;21.67;16.67;12.33
72854;PMS7003;60991;51.278;22.550;2023-02-01T00:40:33;14.67;10.00;10.00
72854;PMS7003;60991;51.278;22.550;2023-02-01T00:42:03;21.00;12.33;11.00
72854;PMS7003;60991;51.278;22.550;2023-02-01T00:43:34;20.25;13.25;7.75
72854;PMS7003;60991;51.278;22.550;2023-02-01T00:45:04;19.50;16.00;12.00
72854;PMS7003;60991;51.278;22.550;2023-02-01T00:46:35;17.75;14.75;11.50
72854;PMS7003;60991;51.278;22.550;2023-02-01T00:48:05;12.00;11.00;9.00
72854;PMS7003;60991;51.278;22.550;2023-02-01T00:49:35;12.00;10.75;7.75
72854;PMS7003;60991;51.278;22.550;2023-02-01T00:51:07;16.00;12.33;9.33
72854;PMS7003;60991;51.278;22.550;2023-02-01T00:52:40;14.00;11.00;8.00
72854;PMS7003;60991;51.278;22.550;2023-02-01T00:54:10;25.00;18.33;10.67
72854;PMS7003;60991;51.278;22.550;2023-02-01T00:55:40;16.33;15.33;10.00
72854;PMS7003;60991;51.278;22.550;2023-02-01T00:57:14;16.75;14.50;11.00
72854;PMS7003;60991;51.278;22.550;2023-02-01T00:58:44;21.67;16.00;10.67
72854;PMS7003;60991;51.278;22.550;2023-02-01T01:00:14;15.00;13.75;11.00
72854;PMS7003;60991;51.278;22.550;2023-02-01T01:01:45;11.00;11.00;10.00
72854;PMS7003;60991;51.278;22.550;2023-02-01T01:03:15;18.33;14.00;10.00
72854;PMS7003;60991;51.278;22.550;2023-02-01T01:04:45;15.33;15.33;8.00
72854;PMS7003;60991;51.278;22.550;2023-02-01T01:06:16;16.50;12.50;10.50
72854;PMS7003;60991;51.278;22.550;2023-02-01T01:07:50;14.00;11.00;8.00
72854;PMS7003;60991;51.278;22.550;2023-02-01T01:09:20;14.00;11.00;8.67
72854;PMS7003;60991;51.278;22.550;2023-02-01T01:10:50;12.67;12.00;8.00
72854;PMS7003;60991;51.278;22.550;2023-02-01T01:12:20;17.00;13.50;9.50
72854;PMS7003;60991;51.278;22.550;2023-02-01T01:13:51;15.00;13.75;10.50
72854;PMS7003;60991;51.278;22.550;2023-02-01T01:15:22;12.75;12.75;8.00
72854;PMS7003;60991;51.278;22.550;2023-02-01T01:16:53;17.00;13.67;10.00
72854;PMS7003;60991;51.278;22.550;2023-02-01T01:18:23;11.67;8.67;8.67
72854;PMS7003;60991;51.278;22.550;2023-02-01T01:19:53;15.67;12.33;7.67
72854;PMS7003;60991;51.278;22.550;2023-02-01T01:21:24;12.33;11.33;9.33
72854;PMS7003;60991;51.278;22.550;2023-02-01T01:22:54;11.50;8.25;7.50
72854;PMS7003;60991;51.278;22.550;2023-02-01T01:24:24;11.67;7.33;7.00
72854;PMS7003;60991;51.278;22.550;2023-02-01T01:25:54;11.00;11.00;8.00
72854;PMS7003;60991;51.278;22.550;2023-02-01T01:27:25;9.50;7.00;5.00
72854;PMS7003;60991;51.278;22.550;2023-02-01T01:28:56;10.67;10.67;7.67
72854;PMS7003;60991;51.278;22.550;2023-02-01T01:30:26;9.25;7.00;5.00
72854;PMS7003;60991;51.278;22.550;2023-02-01T01:31:56;15.00;11.67;7.00
72854;PMS7003;60991;51.278;22.550;2023-02-01T01:33:27;8.00;8.00;5.00
72854;PMS7003;60991;51.278;22.550;2023-02-01T01:34:57;7.00;7.00;6.00
72854;PMS7003;60991;51.278;22.550;2023-02-01T01:36:28;15.00;12.00;9.75
72854;PMS7003;60991;51.278;22.550;2023-02-01T01:37:59;14.00;9.00;7.00
72854;PMS7003;60991;51.278;22.550;2023-02-01T01:39:30;14.00;10.00;7.75
72854;PMS7003;60991;51.278;22.550;2023-02-01T01:41:00;8.75;8.75;7.00
72854;PMS7003;60991;51.278;22.550;2023-02-01T01:42:30;10.25;7.25;6.00
72854;PMS7003;60991;51.278;22.550;2023-02-01T01:44:54;11.25;9.50;7.75
72854;PMS7003;60991;51.278;22.550;2023-02-01T01:46:17;11.75;9.50;7.75
72854;PMS7003;60991;51.278;22.550;2023-02-01T01:47:50;10.25;6.50;6.50
72854;PMS7003;60991;51.278;22.550;2023-02-01T01:49:24;12.00;10.25;6.00
72854;PMS7003;60991;51.278;22.550;2023-02-01T01:50:57;8.50;7.00;4.75
72854;PMS7003;60991;51.278;22.550;2023-02-01T01:52:32;12.00;8.00;5.00
72854;PMS7003;60991;51.278;22.550;2023-02-01T01:54:07;5.00;5.00;4.00
72854;PMS7003;60991;51.278;22.550;2023-02-01T01:55:43;8.00;7.25;5.00
72854;PMS7003;60991;51.278;22.550;2023-02-01T01:57:22;10.00;7.00;3.50
72854;PMS7003;60991;51.278;22.550;2023-02-01T01:58:57;10.00;6.00;4.25
72854;PMS7003;60991;51.278;22.550;2023-02-01T02:00:28;14.50;11.25;7.00
72854;PMS7003;60991;51.278;22.550;2023-02-01T02:01:58;6.75;6.75;6.00
72854;PMS7003;60991;51.278;22.550;2023-02-01T02:03:35;7.33;7.00;5.00
72854;PMS7003;60991;51.278;22.550;2023-02-01T02:05:09;6.00;5.00;5.00
72854;PMS7003;60991;51.278;22.550;2023-02-01T02:06:50;4.75;4.75;3.50
72854;PMS7003;60991;51.278;22.550;2023-02-01T02:08:26;7.00;4.75;4.25
72854;PMS7003;60991;51.278;22.550;2023-02-01T02:09:56;12.50;5.00;4.75
72854;PMS7003;60991;51.278;22.550;2023-02-01T02:11:27;5.75;5.75;4.75
72854;PMS7003;60991;51.278;22.550;2023-02-01T02:12:57;6.50;4.00;2.00
72854;PMS7003;60991;51.278;22.550;2023-02-01T02:14:27;5.50;4.50;4.00
72854;PMS7003;60991;51.278;22.550;2023-02-01T02:17:52;6.75;4.25;3.50
72854;PMS7003;60991;51.278;22.550;2023-02-01T02:24:08;4.25;4.25;4.00
72854;PMS7003;60991;51.278;22.550;2023-02-01T02:25:55;4.25;4.00;2.00
72854;PMS7003;60991;51.278;22.550;2023-02-01T02:35:26;7.25;6.50;5.00
72854;PMS7003;60991;51.278;22.550;2023-02-01T02:38:46;7.00;4.75;4.00
72854;PMS7003;60991;51.278;22.550;2023-02-01T02:44:19;4.00;4.00;4.00
72854;PMS7003;60991;51.278;22.550;2023-02-01T02:51:46;3.00;3.00;1.50
72854;PMS7003;60991;51.278;22.550;2023-02-01T02:53:37;2.00;2.00;2.00
72854;PMS7003;60991;51.278;22.550;2023-02-01T02:55:13;3.75;2.00;2.00
72854;PMS7003;60991;51.278;22.550;2023-02-01T02:56:43;2.00;0.00;0.00
72854;PMS7003;60991;51.278;22.550;2023-02-01T02:58:14;4.25;2.00;1.00
72854;PMS7003;60991;51.278;22.550;2023-02-01T02:59:45;3.50;3.00;1.75
72854;PMS7003;60991;51.278;22.550;2023-02-01T03:01:18;4.00;0.75;0.00
72854;PMS7003;60991;51.278;22.550;2023-02-01T03:02:48;6.00;2.00;1.00
72854;PMS7003;60991;51.278;22.550;2023-02-01T03:04:19;2.00;2.00;1.00
72854;PMS7003;60991;51.278;22.550;2023-02-01T03:05:50;2.00;1.75;1.00
72854;PMS7003;60991;51.278;22.550;2023-02-01T03:09:31;1.75;1.75;1.00
72854;PMS7003;60991;51.278;22.550;2023-02-01T03:11:07;1.00;1.00;0.25
72854;PMS7003;60991;51.278;22.550;2023-02-01T03:12:40;1.00;1.00;1.00
72854;PMS7003;60991;51.278;22.550;2023-02-01T03:14:13;0.00;0.00;0.00
72854;PMS7003;60991;51.278;22.550;2023-02-01T03:15:48;2.00;0.50;0.50
72854;PMS7003;60991;51.278;22.550;2023-02-01T03:17:29;0.50;0.50;0.50
72854;PMS7003;60991;51.278;22.550;2023-02-01T03:19:19;0.00;0.00;0.00
72854;PMS7003;60991;51.278;22.550;2023-02-01T03:20:55;1.00;1.00;0.75
72854;PMS7003;60991;51.278;22.550;2023-02-01T03:22:29;1.00;1.00;1.00
72854;PMS7003;60991;51.278;22.550;2023-02-01T03:24:07;1.00;0.00;0.00
72854;PMS7003;60991;51.278;22.550;2023-02-01T03:25:42;1.75;1.75;1.50
72854;PMS7003;60991;51.278;22.550;2023-02-01T03:28:48;4.00;1.75;1.00
72854;PMS7003;60991;51.278;22.550;2023-02-01T03:30:26;0.50;0.50;0.25
72854;PMS7003;60991;51.278;22.550;2023-02-01T03:31:59;1.25;0.00;0.00
72854;PMS7003;60991;51.278;22.550;2023-02-01T03:33:29;0.75;0.00;0.00
72854;PMS7003;60991;51.278;22.550;2023-02-01T03:35:01;1.00;1.00;0.75
72854;PMS7003;60991;51.278;22.550;2023-02-01T03:36:35;1.25;1.00;1.00
72854;PMS7003;60991;51.278;22.550;2023-02-01T03:38:20;0.00;0.00;0.00
72854;PMS7003;60991;51.278;22.550;2023-02-01T03:39:59;0.00;0.00;0.00
72854;PMS7003;60991;51.278;22.550;2023-02-01T03:41:34;1.00;1.00;1.00
72854;PMS7003;60991;51.278;22.550;2023-02-01T03:43:10;1.00;1.00;0.75
72854;PMS7003;60991;51.278;22.550;2023-02-01T03:44:48;1.50;0.00;0.00
72854;PMS7003;60991;51.278;22.550;2023-02-01T03:46:33;0.50;0.50;0.50
72854;PMS7003;60991;51.278;22.550;2023-02-01T03:48:07;0.25;0.25;0.25
72854;PMS7003;60991;51.278;22.550;2023-02-01T03:49:43;0.50;0.00;0.00
72854;PMS7003;60991;51.278;22.550;2023-02-01T03:51:25;3.25;1.50;1.00
72854;PMS7003;60991;51.278;22.550;2023-02-01T03:52:57;4.00;1.00;0.75
72854;PMS7003;60991;51.278;22.550;2023-02-01T03:54:32;1.00;1.00;1.00
72854;PMS7003;60991;51.278;22.550;2023-02-01T03:56:03;1.00;1.00;1.00
72854;PMS7003;60991;51.278;22.550;2023-02-01T03:57:35;1.00;1.00;1.00
72854;PMS7003;60991;51.278;22.550;2023-02-01T03:59:11;1.00;1.00;1.00
72854;PMS7003;60991;51.278;22.550;2023-02-01T04:00:52;4.00;2.00;1.75
72854;PMS7003;60991;51.278;22.550;2023-02-01T04:02:25;3.75;1.00;1.00
72854;PMS7003;60991;51.278;22.550;2023-02-01T04:03:55;2.00;1.00;1.00
72854;PMS7003;60991;51.278;22.550;2023-02-01T04:05:27;1.75;1.00;1.00
72854;PMS7003;60991;51.278;22.550;2023-02-01T04:06:57;1.00;1.00;1.00
72854;PMS7003;60991;51.278;22.550;2023-02-01T04:08:27;4.00;1.33;1.00
72854;PMS7003;60991;51.278;22.550;2023-02-01T04:09:57;5.00;1.33;1.00
72854;PMS7003;60991;51.278;22.550;2023-02-01T04:11:27;1.00;0.33;0.33
72854;PMS7003;60991;51.278;22.550;2023-02-01T04:12:58;5.75;1.75;0.25
72854;PMS7003;60991;51.278;22.550;2023-02-01T04:14:28;0.75;0.75;0.75
72854;PMS7003;60991;51.278;22.550;2023-02-01T04:15:58;1.00;1.00;1.00
72854;PMS7003;60991;51.278;22.550;2023-02-01T04:17:29;0.00;0.00;0.00
72854;PMS7003;60991;51.278;22.550;2023-02-01T04:18:59;1.00;1.00;0.50
72854;PMS7003;60991;51.278;22.550;2023-02-01T04:20:29;0.00;0.00;0.00
72854;PMS7003;60991;51.278;22.550;2023-02-01T04:22:00;1.00;1.00;1.00
72854;PMS7003;60991;51.278;22.550;2023-02-01T04:23:30;1.75;0.00;0.00
72854;PMS7003;60991;51.278;22.550;2023-02-01T04:25:00;0.25;0.00;0.00
72854;PMS7003;60991;51.278;22.550;2023-02-01T04:26:31;2.00;0.00;0.00
72854;PMS7003;60991;51.278;22.550;2023-02-01T04:28:01;0.00;0.00;0.00
72854;PMS7003;60991;51.278;22.550;2023-02-01T04:29:31;0.00;0.00;0.00
72854;PMS7003;60991;51.278;22.550;2023-02-01T04:31:01;1.00;1.00;1.00
72854;PMS7003;60991;51.278;22.550;2023-02-01T04:32:31;0.33;0.00;0.00
72854;PMS7003;60991;51.278;22.550;2023-02-01T04:34:02;1.00;1.00;1.00
72854;PMS7003;60991;51.278;22.550;2023-02-01T04:35:32;1.00;0.00;0.00
72854;PMS7003;60991;51.278;22.550;2023-02-01T04:37:03;2.00;0.00;0.00
72854;PMS7003;60991;51.278;22.550;2023-02-01T04:38:33;0.00;0.00;0.00
72854;PMS7003;60991;51.278;22.550;2023-02-01T04:40:03;0.00;0.00;0.00
72854;PMS7003;60991;51.278;22.550;2023-02-01T04:41:34;3.00;0.25;0.00
72854;PMS7003;60991;51.278;22.550;2023-02-01T04:43:04;1.00;0.00;0.00
72854;PMS7003;60991;51.278;22.550;2023-02-01T04:44:34;3.00;0.00;0.00
72854;PMS7003;60991;51.278;22.550;2023-02-01T04:46:04;1.00;0.50;0.00
72854;PMS7003;60991;51.278;22.550;2023-02-01T04:47:35;2.00;1.00;1.00
72854;PMS7003;60991;51.278;22.550;2023-02-01T04:49:05;3.00;1.00;1.00
72854;PMS7003;60991;51.278;22.550;2023-02-01T04:50:35;0.00;0.00;0.00
72854;PMS7003;60991;51.278;22.550;2023-02-01T04:52:05;0.00;0.00;0.00
72854;PMS7003;60991;51.278;22.550;2023-02-01T04:53:36;0.00;0.00;0.00
72854;PMS7003;60991;51.278;22.550;2023-02-01T04:55:06;3.50;0.00;0.00
72854;PMS7003;60991;51.278;22.550;2023-02-01T04:56:37;1.00;0.00;0.00
72854;PMS7003;60991;51.278;22.550;2023-02-01T04:58:07;0.00;0.00;0.00
72854;PMS7003;60991;51.278;22.550;2023-02-01T04:59:38;0.00;0.00;0.00
72854;PMS7003;60991;51.278;22.550;2023-02-01T05:01:09;0.00;0.00;0.00
72854;PMS7003;60991;51.278;22.550;2023-02-01T05:02:39;1.33;0.67;0.67
72854;PMS7003;60991;51.278;22.550;2023-02-01T05:04:09;1.33;0.00;0.00
72854;PMS7003;60991;51.278;22.550;2023-02-01T05:05:40;7.00;1.00;0.50
72854;PMS7003;60991;51.278;22.550;2023-02-01T05:07:10;1.00;1.00;0.33
72854;PMS7003;60991;51.278;22.550;2023-02-01T05:08:40;0.00;0.00;0.00
72854;PMS7003;60991;51.278;22.550;2023-02-01T05:10:10;0.00;0.00;0.00
72854;PMS7003;60991;51.278;22.550;2023-02-01T05:11:41;2.67;0.33;0.33
72854;PMS7003;60991;51.278;22.550;2023-02-01T05:13:11;0.00;0.00;0.00
72854;PMS7003;60991;51.278;22.550;2023-02-01T05:14:41;3.00;1.67;0.00
72854;PMS7003;60991;51.278;22.550;2023-02-01T05:16:12;1.00;0.00;0.00
72854;PMS7003;60991;51.278;22.550;2023-02-01T05:17:42;1.00;1.00;0.00
72854;PMS7003;60991;51.278;22.550;2023-02-01T05:19:12;1.00;1.00;0.50
72854;PMS7003;60991;51.278;22.550;2023-02-01T05:20:43;2.00;1.00;0.00
72854;PMS7003;60991;51.278;22.550;2023-02-01T05:22:13;2.00;1.00;0.00
72854;PMS7003;60991;51.278;22.550;2023-02-01T05:23:43;0.67;0.67;0.67
72854;PMS7003;60991;51.278;22.550;2023-02-01T05:25:13;0.75;0.75;0.00
72854;PMS7003;60991;51.278;22.550;2023-02-01T05:26:44;1.00;1.00;1.00
72854;PMS7003;60991;51.278;22.550;2023-02-01T05:28:14;4.00;0.67;0.00
72854;PMS7003;60991;51.278;22.550;2023-02-01T05:29:44;4.00;1.00;0.75
72854;PMS7003;60991;51.278;22.550;2023-02-01T05:31:14;1.00;1.00;1.00
72854;PMS7003;60991;51.278;22.550;2023-02-01T05:32:45;1.00;0.25;0.00
72854;PMS7003;60991;51.278;22.550;2023-02-01T05:34:15;3.33;1.67;0.67
72854;PMS7003;60991;51.278;22.550;2023-02-01T05:35:46;5.50;1.00;0.00
72854;PMS7003;60991;51.278;22.550;2023-02-01T05:37:16;0.67;0.67;0.00
72854;PMS7003;60991;51.278;22.550;2023-02-01T05:38:46;0.75;0.75;0.75
72854;PMS7003;60991;51.278;22.550;2023-02-01T05:40:16;1.50;1.00;0.50
72854;PMS7003;60991;51.278;22.550;2023-02-01T05:41:47;0.00;0.00;0.00
72854;PMS7003;60991;51.278;22.550;2023-02-01T05:43:17;5.00;0.00;0.00
72854;PMS7003;60991;51.278;22.550;2023-02-01T05:44:47;0.67;0.67;0.00
72854;PMS7003;60991;51.278;22.550;2023-02-01T05:46:17;1.00;1.00;1.00
72854;PMS7003;60991;51.278;22.550;2023-02-01T05:47:48;2.50;2.00;1.50
72854;PMS7003;60991;51.278;22.550;2023-02-01T05:49:18;3.50;1.00;1.00
72854;PMS7003;60991;51.278;22.550;2023-02-01T05:54:05;2.00;1.00;0.75
72854;PMS7003;60991;51.278;22.550;2023-02-01T05:55:36;2.00;0.33;0.33
72854;PMS7003;60991;51.278;22.550;2023-02-01T05:58:46;0.50;0.50;0.25
72854;PMS7003;60991;51.278;22.550;2023-02-01T06:03:33;1.00;1.00;1.00
72854;PMS7003;60991;51.278;22.550;2023-02-01T06:05:04;1.67;1.67;0.33
72854;PMS7003;60991;51.278;22.550;2023-02-01T06:06:34;2.00;1.00;1.00
72854;PMS7003;60991;51.278;22.550;2023-02-01T06:08:04;5.00;1.00;1.00
72854;PMS7003;60991;51.278;22.550;2023-02-01T06:09:35;1.00;1.00;1.00
72854;PMS7003;60991;51.278;22.550;2023-02-01T06:11:05;0.50;0.50;0.25
72854;PMS7003;60991;51.278;22.550;2023-02-01T06:12:36;1.00;1.00;1.00
72854;PMS7003;60991;51.278;22.550;2023-02-01T06:14:06;4.00;2.00;2.00
72854;PMS7003;60991;51.278;22.550;2023-02-01T06:15:37;4.00;1.00;1.00
72854;PMS7003;60991;51.278;22.550;2023-02-01T06:17:07;6.00;2.00;1.67
72854;PMS7003;60991;51.278;22.550;2023-02-01T06:18:37;3.50;1.00;0.75
72854;PMS7003;60991;51.278;22.550;2023-02-01T06:20:07;3.33;1.00;1.00
72854;PMS7003;60991;51.278;22.550;2023-02-01T06:21:38;1.50;1.00;1.00
72854;PMS7003;60991;51.278;22.550;2023-02-01T06:23:08;2.50;2.50;1.00
72854;PMS7003;60991;51.278;22.550;2023-02-01T06:24:38;2.00;0.33;0.33
72854;PMS7003;60991;51.278;22.550;2023-02-01T06:26:09;0.33;0.33;0.33
72854;PMS7003;60991;51.278;22.550;2023-02-01T06:27:39;5.00;1.00;1.00
72854;PMS7003;60991;51.278;22.550;2023-02-01T06:29:09;1.50;1.00;1.00
72854;PMS7003;60991;51.278;22.550;2023-02-01T06:30:40;1.00;1.00;1.00
72854;PMS7003;60991;51.278;22.550;2023-02-01T06:32:10;3.33;1.00;1.00
72854;PMS7003;60991;51.278;22.550;2023-02-01T06:33:40;1.00;1.00;1.00
72854;PMS7003;60991;51.278;22.550;2023-02-01T06:35:11;2.00;1.50;1.00
72854;PMS7003;60991;51.278;22.550;2023-02-01T06:36:41;1.00;0.00;0.00
72854;PMS7003;60991;51.278;22.550;2023-02-01T06:38:11;1.00;1.00;1.00
72854;PMS7003;60991;51.278;22.550;2023-02-01T06:39:41;2.00;2.00;1.75
72854;PMS7003;60991;51.278;22.550;2023-02-01T06:41:12;2.00;2.00;0.67
72854;PMS7003;60991;51.278;22.550;2023-02-01T06:42:42;0.00;0.00;0.00
72854;PMS7003;60991;51.278;22.550;2023-02-01T06:44:12;1.00;0.00;0.00
72854;PMS7003;60991;51.278;22.550;2023-02-01T06:45:42;1.50;0.00;0.00
72854;PMS7003;60991;51.278;22.550;2023-02-01T06:47:12;1.00;1.00;1.00
72854;PMS7003;60991;51.278;22.550;2023-02-01T06:48:43;4.00;1.00;1.00
72854;PMS7003;60991;51.278;22.550;2023-02-01T06:50:13;1.00;1.00;1.00
72854;PMS7003;60991;51.278;22.550;2023-02-01T06:51:43;2.00;2.00;1.00
72854;PMS7003;60991;51.278;22.550;2023-02-01T06:53:13;1.33;1.33;1.00
72854;PMS7003;60991;51.278;22.550;2023-02-01T06:54:44;2.00;2.00;1.00
72854;PMS7003;60991;51.278;22.550;2023-02-01T06:56:14;2.00;2.00;1.00
72854;PMS7003;60991;51.278;22.550;2023-02-01T06:57:44;2.00;1.50;1.00
72854;PMS7003;60991;51.278;22.550;2023-02-01T06:59:14;1.67;1.67;1.00
72854;PMS7003;60991;51.278;22.550;2023-02-01T07:00:44;5.00;2.00;1.33
72854;PMS7003;60991;51.278;22.550;2023-02-01T07:02:15;7.00;3.33;1.00
72854;PMS7003;60991;51.278;22.550;2023-02-01T07:03:48;1.33;1.33;1.00
72854;PMS7003;60991;51.278;22.550;2023-02-01T07:05:20;1.00;1.00;1.00
72854;PMS7003;60991;51.278;22.550;2023-02-01T07:06:50;8.00;3.50;3.00
72854;PMS7003;60991;51.278;22.550;2023-02-01T07:08:20;1.50;1.50;1.00
72854;PMS7003;60991;51.278;22.550;2023-02-01T07:09:51;2.00;2.00;2.00
72854;PMS7003;60991;51.278;22.550;2023-02-01T07:11:21;2.50;1.00;0.75
72854;PMS7003;60991;51.278;22.550;2023-02-01T07:12:51;1.50;1.50;1.25
72854;PMS7003;60991;51.278;22.550;2023-02-01T07:14:21;4.67;1.00;1.00
72854;PMS7003;60991;51.278;22.550;2023-02-01T07:15:52;2.00;1.33;0.67
72854;PMS7003;60991;51.278;22.550;2023-02-01T07:17:25;1.00;1.00;1.00
72854;PMS7003;60991;51.278;22.550;2023-02-01T07:18:55;2.75;1.00;0.50
72854;PMS7003;60991;51.278;22.550;2023-02-01T07:20:25;2.67;1.00;1.00
72854;PMS7003;60991;51.278;22.550;2023-02-01T07:21:55;4.00;1.67;1.00
72854;PMS7003;60991;51.278;22.550;2023-02-01T07:23:26;1.00;1.00;1.00
72854;PMS7003;60991;51.278;22.550;2023-02-01T07:24:56;2.75;1.00;1.00
72854;PMS7003;60991;51.278;22.550;2023-02-01T07:26:27;2.00;1.00;1.00
72854;PMS7003;60991;51.278;22.550;2023-02-01T07:27:57;4.25;2.50;2.00
72854;PMS7003;60991;51.278;22.550;2023-02-01T07:29:27;1.75;1.00;1.00
72854;PMS7003;60991;51.278;22.550;2023-02-01T07:32:34;3.50;1.75;1.75
72854;PMS7003;60991;51.278;22.550;2023-02-01T07:34:04;3.33;1.00;1.00
72854;PMS7003;60991;51.278;22.550;2023-02-01T07:35:34;4.00;2.00;1.00
72854;PMS7003;60991;51.278;22.550;2023-02-01T07:37:05;2.00;2.00;2.00
72854;PMS7003;60991;51.278;22.550;2023-02-01T07:38:35;2.00;0.25;0.25
72854;PMS7003;60991;51.278;22.550;2023-02-01T07:40:05;3.50;1.00;1.00
72854;PMS7003;60991;51.278;22.550;2023-02-01T07:41:37;3.00;1.75;1.25
72854;PMS7003;60991;51.278;22.550;2023-02-01T07:43:07;3.33;2.00;1.00
72854;PMS7003;60991;51.278;22.550;2023-02-01T07:44:37;2.00;2.00;1.50
72854;PMS7003;60991;51.278;22.550;2023-02-01T07:46:07;2.67;1.00;0.67
72854;PMS7003;60991;51.278;22.550;2023-02-01T07:47:40;2.00;2.00;1.00
72854;PMS7003;60991;51.278;22.550;2023-02-01T07:49:10;2.00;1.00;0.67
72854;PMS7003;60991;51.278;22.550;2023-02-01T07:50:40;4.33;4.00;2.67
72854;PMS7003;60991;51.278;22.550;2023-02-01T07:52:10;4.00;2.00;2.00
72854;PMS7003;60991;51.278;22.550;2023-02-01T07:53:41;4.00;2.00;2.00
72854;PMS7003;60991;51.278;22.550;2023-02-01T07:55:12;7.00;5.00;2.00
72854;PMS7003;60991;51.278;22.550;2023-02-01T07:56:42;3.50;3.50;0.75
72854;PMS7003;60991;51.278;22.550;2023-02-01T07:58:12;5.67;2.00;1.67
72854;PMS7003;60991;51.278;22.550;2023-02-01T07:59:43;1.67;1.67;1.00
72854;PMS7003;60991;51.278;22.550;2023-02-01T08:01:13;2.50;1.00;0.00
72854;PMS7003;60991;51.278;22.550;2023-02-01T08:02:45;2.00;1.00;0.50
72854;PMS7003;60991;51.278;22.550;2023-02-01T08:04:15;1.00;1.00;1.00
72854;PMS7003;60991;51.278;22.550;2023-02-01T08:05:45;2.00;1.00;1.00
72854;PMS7003;60991;51.278;22.550;2023-02-01T08:07:15;2.00;2.00;2.00
72854;PMS7003;60991;51.278;22.550;2023-02-01T08:08:46;1.67;1.67;1.00
72854;PMS7003;60991;51.278;22.550;2023-02-01T08:10:17;2.25;1.75;1.00
72854;PMS7003;60991;51.278;22.550;2023-02-01T08:11:48;2.00;2.00;2.00
72854;PMS7003;60991;51.278;22.550;2023-02-01T08:13:18;7.00;2.00;1.00
72854;PMS7003;60991;51.278;22.550;2023-02-01T08:14:48;1.33;1.33;1.00
72854;PMS7003;60991;51.278;22.550;2023-02-01T08:16:19;1.67;1.00;1.00
72854;PMS7003;60991;51.278;22.550;2023-02-01T08:17:51;1.50;1.50;1.00
72854;PMS7003;60991;51.278;22.550;2023-02-01T08:19:21;5.00;2.00;1.00
72854;PMS7003;60991;51.278;22.550;2023-02-01T08:20:51;4.00;2.00;2.00
72854;PMS7003;60991;51.278;22.550;2023-02-01T08:22:22;2.50;1.00;1.00
72854;PMS7003;60991;51.278;22.550;2023-02-01T08:23:52;1.50;1.50;1.25
72854;PMS7003;60991;51.278;22.550;2023-02-01T08:25:23;3.75;1.50;1.00
72854;PMS7003;60991;51.278;22.550;2023-02-01T08:26:53;2.00;1.00;1.00
72854;PMS7003;60991;51.278;22.550;2023-02-01T08:28:23;2.67;1.33;1.00
72854;PMS7003;60991;51.278;22.550;2023-02-01T08:29:54;1.67;1.67;1.00
72854;PMS7003;60991;51.278;22.550;2023-02-01T08:31:24;5.00;2.00;1.00
72854;PMS7003;60991;51.278;22.550;2023-02-01T08:32:56;2.75;2.00;1.00
72854;PMS7003;60991;51.278;22.550;2023-02-01T08:34:27;3.00;1.75;1.25
72854;PMS7003;60991;51.278;22.550;2023-02-01T08:35:59;1.75;1.00;1.00
72854;PMS7003;60991;51.278;22.550;2023-02-01T08:37:31;2.50;1.00;1.00
72854;PMS7003;60991;51.278;22.550;2023-02-01T08:39:01;2.00;1.75;1.00
72854;PMS7003;60991;51.278;22.550;2023-02-01T08:40:31;1.00;0.50;0.00
72854;PMS7003;60991;51.278;22.550;2023-02-01T08:42:02;1.33;1.33;1.00
72854;PMS7003;60991;51.278;22.550;2023-02-01T08:43:32;1.75;1.00;0.00
72854;PMS7003;60991;51.278;22.550;2023-02-01T08:45:03;2.00;1.00;1.00
72854;PMS7003;60991;51.278;22.550;2023-02-01T08:46:33;2.50;1.00;1.00
72854;PMS7003;60991;51.278;22.550;2023-02-01T08:48:04;2.00;2.00;1.33
72854;PMS7003;60991;51.278;22.550;2023-02-01T08:49:34;4.50;0.25;0.25
72854;PMS7003;60991;51.278;22.550;2023-02-01T08:51:05;3.33;1.00;1.00
72854;PMS7003;60991;51.278;22.550;2023-02-01T08:52:37;7.75;2.00;1.50
72854;PMS7003;60991;51.278;22.550;2023-02-01T08:54:07;1.75;1.50;1.00
72854;PMS7003;60991;51.278;22.550;2023-02-01T08:55:37;1.00;1.00;1.00
72854;PMS7003;60991;51.278;22.550;2023-02-01T08:57:08;0.00;0.00;0.00
72854;PMS7003;60991;51.278;22.550;2023-02-01T08:58:38;4.75;2.00;1.00
72854;PMS7003;60991;51.278;22.550;2023-02-01T09:00:11;4.25;1.25;1.00
72854;PMS7003;60991;51.278;22.550;2023-02-01T09:01:43;2.00;1.00;1.00
72854;PMS7003;60991;51.278;22.550;2023-02-01T09:03:13;2.67;1.00;0.67
72854;PMS7003;60991;51.278;22.550;2023-02-01T09:04:44;1.00;1.00;0.50
72854;PMS7003;60991;51.278;22.550;2023-02-01T09:06:14;1.00;1.00;1.00
72854;PMS7003;60991;51.278;22.550;2023-02-01T09:07:45;1.50;1.50;1.50
72854;PMS7003;60991;51.278;22.550;2023-02-01T09:09:15;1.00;1.00;1.00
72854;PMS7003;60991;51.278;22.550;2023-02-01T09:10:45;1.50;0.00;0.00
72854;PMS7003;60991;51.278;22.550;2023-02-01T09:12:15;3.33;1.00;1.00
72854;PMS7003;60991;51.278;22.550;2023-02-01T09:13:46;0.75;0.75;0.00
72854;PMS7003;60991;51.278;22.550;2023-02-01T09:15:17;4.00;2.00;2.00
72854;PMS7003;60991;51.278;22.550;2023-02-01T09:16:47;1.00;1.00;1.00
72854;PMS7003;60991;51.278;22.550;2023-02-01T09:18:17;1.00;1.00;1.00
72854;PMS7003;60991;51.278;22.550;2023-02-01T09:19:48;1.50;0.75;0.75
72854;PMS7003;60991;51.278;22.550;2023-02-01T09:21:18;3.00;2.00;1.00
72854;PMS7003;60991;51.278;22.550;2023-02-01T09:22:48;4.00;1.75;1.00
72854;PMS7003;60991;51.278;22.550;2023-02-01T09:24:18;4.00;1.00;1.00